ME00 weather

Public forecast

Using degrees Fahrenheit for public forecast. Weather courtesy of forecast.io.

Closest aviation weather report (METAR) to Fort Fairfield Airport

Closest report is Presque Isle International Airport, 9.3 nm (17.3 km) WSW. Retrieved 2020/08/11 17:56 UTC (30 minutes ago):

KPQI 111756Z AUTO 23010KT 10SM SCT055 SCT070 32/19 A2985 RMK AO2 SLP127 T03220194 10322 20211 58017

Closest aviation forecast (TAF) to Fort Fairfield Airport

Closest forecast is Presque Isle International Airport, 9.3 nm (17.3 km) WSW. Retrieved 2020/08/11 12:34 UTC (6 hours ago):

TAF KPQI 111132Z 1112/1212 19008KT P6SM BKN040 FM111800 21010KT P6SM VCSH BKN040 FM112200 21008KT P6SM VCTS BKN040CB FM120200 20006KT 4SM -SHRA VCTS SCT015 OVC025CB FM120800 20006KT 3SM -SHRA BR VCTS OVC008CB